Main page
Satellite images 10-day forecastsClimateMarine weather Cyclones Lightning AirportsFAQ Newsletter About
Weather : Europe Africa North America South America Asia Australia-Oceania Others
Languages Contact

Dortmund, Germany

Dortmund Airport

latitude: 51-31N, longitude: 007-37E, elevation: 127 m


METAR: EDLW 260650Z 32007KT 9999 SCT015 BKN062 10/05 Q1019 RMK ATIS H
TAF: EDLW 260500Z 2606/2706 33007KT 9999 SCT035 BECMG 2619/2622 27004KT

Time: 09:23 (07:23 UTC)

Current weather observation

The report was made 33 minutes ago, at 06:50 UTC
Wind 7 kt from the Northwest
Temperature 10°C
Humidity 71%
Pressure 1019 hPa
Visibility 10 km or more
Scattered clouds at a height of 1500 ft
Broken clouds at a height of 6200 ft

Change units

Forecast

The report was made 2 hours and 23 minutes ago, at 05:00 UTC
Forecast valid from 26 at 06 UTC to 27 at 06 UTC
Wind 7 kt from the North/Northwest
Visibility 10 km or more
Scattered clouds at a height of 3500 ft
Becoming
from 26 at 19 UTC to 26 at 22 UTC
Wind 4 kt from the West
The information on this site is subject to a disclaimer
Weather : Europe Africa North America South America Asia Australia-Oceania Others
Satellite images 10-day forecastsClimateMarine weather Cyclones Lightning AirportsFAQ Languages Contact Newsletter About